createdAt,value
2022-08-22T00:02:45.526Z,99.90
2022-08-22T00:02:48.935Z,99.90
2022-08-22T00:02:55.439Z,99.90
2022-08-22T00:03:06.480Z,99.90
2022-08-22T00:03:06.993Z,99.90
2022-08-22T00:03:17.341Z,99.90
2022-08-22T00:05:58.681Z,99.90
2022-08-22T00:08:35.414Z,99.90
2022-08-22T00:11:14.967Z,99.90
2022-08-22T00:14:20.096Z,99.90
2022-08-22T00:17:00.563Z,99.90
2022-08-22T00:19:54.284Z,99.90
2022-08-22T00:22:34.105Z,99.90
2022-08-22T00:25:26.596Z,99.90
2022-08-22T00:28:17.420Z,99.90
2022-08-22T00:30:54.886Z,99.90
2022-08-22T00:33:39.637Z,99.90
2022-08-22T00:36:47.852Z,99.90
2022-08-22T00:39:31.401Z,99.90
2022-08-22T00:42:52.468Z,99.90
2022-08-22T00:45:52.303Z,99.90
2022-08-22T00:48:38.679Z,99.90
2022-08-22T00:51:18.884Z,99.90
2022-08-22T00:54:17.486Z,99.90
2022-08-22T00:56:57.005Z,99.90
2022-08-22T00:59:48.995Z,99.90
2022-08-22T01:02:52.695Z,99.90
2022-08-22T01:05:51.025Z,99.90
2022-08-22T01:08:55.895Z,99.90
2022-08-22T01:12:14.400Z,99.90
2022-08-22T01:14:56.071Z,99.90
2022-08-22T01:17:38.207Z,99.90
2022-08-22T01:20:39.688Z,99.90
2022-08-22T01:23:48.349Z,99.90
2022-08-22T01:26:21.456Z,99.90
2022-08-22T01:29:10.496Z,99.90
2022-08-22T01:32:14.504Z,99.90
2022-08-22T01:34:57.076Z,99.90
2022-08-22T01:37:47.821Z,99.90
2022-08-22T01:40:20.783Z,99.90
2022-08-22T01:42:51.158Z,99.90
2022-08-22T01:45:42.782Z,99.90
2022-08-22T01:48:10.079Z,99.90
2022-08-22T01:50:43.926Z,99.90
2022-08-22T01:53:39.795Z,99.90
2022-08-22T01:56:12.348Z,99.90
2022-08-22T01:59:01.822Z,99.90
2022-08-22T02:01:47.542Z,99.90
2022-08-22T02:04:27.052Z,99.90
2022-08-22T02:07:31.861Z,99.90
2022-08-22T02:10:08.289Z,99.90
2022-08-22T02:12:44.220Z,99.90
2022-08-22T02:15:31.183Z,99.90
2022-08-22T02:18:07.507Z,99.90
2022-08-22T02:20:42.490Z,99.90
2022-08-22T02:23:48.204Z,99.90
2022-08-22T02:26:21.671Z,99.90
2022-08-22T02:29:01.284Z,99.90
2022-08-22T02:31:40.162Z,99.90
2022-08-22T02:34:34.232Z,99.90
2022-08-22T02:37:16.954Z,99.90
2022-08-22T02:40:05.780Z,99.90
2022-08-22T02:42:47.594Z,99.90
2022-08-22T02:45:27.452Z,99.90
2022-08-22T02:48:06.738Z,99.90
2022-08-22T02:50:55.416Z,99.90
2022-08-22T02:53:53.659Z,99.90
2022-08-22T02:56:35.897Z,99.90
2022-08-22T02:59:51.479Z,99.90
2022-08-22T03:02:27.859Z,99.90
2022-08-22T03:05:23.746Z,99.90
2022-08-22T03:08:05.031Z,99.90
2022-08-22T03:10:43.047Z,99.90
2022-08-22T03:13:12.479Z,99.90
2022-08-22T03:16:04.620Z,99.90
2022-08-22T03:18:53.754Z,99.90
2022-08-22T03:21:36.023Z,99.90
2022-08-22T03:24:20.547Z,99.90
2022-08-22T03:26:53.222Z,99.90
2022-08-22T03:29:25.930Z,99.90
2022-08-22T03:32:10.608Z,99.90
2022-08-22T03:34:38.192Z,99.90
2022-08-22T03:37:12.157Z,99.90
2022-08-22T03:39:51.488Z,99.90
2022-08-22T03:42:38.869Z,99.90
2022-08-22T03:45:35.069Z,99.90
2022-08-22T03:48:30.373Z,99.90
2022-08-22T03:51:00.883Z,99.90
2022-08-22T03:53:46.534Z,99.90
2022-08-22T03:56:32.223Z,99.90
2022-08-22T03:59:20.069Z,99.90
2022-08-22T04:02:43.651Z,99.90
2022-08-22T04:05:30.836Z,99.90
2022-08-22T04:08:21.986Z,99.90
2022-08-22T04:11:05.347Z,99.90
2022-08-22T04:13:58.871Z,99.90
2022-08-22T04:16:47.392Z,99.90
2022-08-22T04:19:33.941Z,99.90
2022-08-22T04:22:19.755Z,99.90
2022-08-22T04:24:56.900Z,99.90
2022-08-22T04:27:36.892Z,99.90
2022-08-22T04:30:32.615Z,99.90
2022-08-22T04:33:05.222Z,99.90
2022-08-22T04:35:43.816Z,99.90
2022-08-22T04:38:30.302Z,99.90
2022-08-22T04:41:15.599Z,99.90
2022-08-22T04:43:53.836Z,99.90
2022-08-22T04:46:55.848Z,99.90
2022-08-22T04:49:50.011Z,99.90
2022-08-22T04:52:54.508Z,99.90
2022-08-22T04:55:58.890Z,99.90
2022-08-22T04:58:37.880Z,99.90
2022-08-22T05:01:20.965Z,99.90
2022-08-22T05:03:57.537Z,99.90
2022-08-22T05:06:29.183Z,99.90
2022-08-22T05:09:01.084Z,99.90
2022-08-22T05:11:29.465Z,99.90
2022-08-22T05:14:04.263Z,99.90
2022-08-22T05:16:37.893Z,99.90
2022-08-22T05:19:33.355Z,99.90
2022-08-22T05:22:01.929Z,99.90
2022-08-22T05:24:36.355Z,99.90
2022-08-22T05:27:23.742Z,99.90
2022-08-22T05:29:57.792Z,99.90
2022-08-22T05:32:29.978Z,99.90
2022-08-22T05:35:01.528Z,99.90
2022-08-22T05:37:39.477Z,99.90
2022-08-22T05:40:09.681Z,99.90
2022-08-22T05:42:37.919Z,99.90
2022-08-22T05:45:11.506Z,99.90
2022-08-22T05:47:45.303Z,99.90
2022-08-22T05:50:27.533Z,99.90
2022-08-22T05:53:11.732Z,99.90
2022-08-22T05:56:13.074Z,99.90
2022-08-22T05:58:40.352Z,99.90
2022-08-22T06:01:25.961Z,99.90
2022-08-22T06:04:14.700Z,99.90
2022-08-22T06:06:57.713Z,99.90
2022-08-22T06:10:01.196Z,99.90
2022-08-22T06:12:43.418Z,99.90
2022-08-22T06:15:42.668Z,99.90
2022-08-22T06:18:15.104Z,99.90
2022-08-22T06:20:55.534Z,99.90
2022-08-22T06:23:29.275Z,99.90
2022-08-22T06:26:00.714Z,99.90
2022-08-22T06:28:37.174Z,99.90
2022-08-22T06:31:23.134Z,99.90
2022-08-22T06:34:20.435Z,99.90
2022-08-22T06:36:50.228Z,99.90
2022-08-22T06:39:20.305Z,99.90
2022-08-22T06:41:50.951Z,99.90
2022-08-22T06:44:23.986Z,99.90
2022-08-22T06:46:55.074Z,99.90
2022-08-22T06:49:24.911Z,99.90
2022-08-22T06:51:53.665Z,99.90
2022-08-22T06:54:24.939Z,99.90
2022-08-22T06:57:00.635Z,99.90
2022-08-22T06:59:32.131Z,99.90
2022-08-22T07:02:25.771Z,99.90
2022-08-22T07:04:53.196Z,99.90
2022-08-22T07:07:23.982Z,99.90
2022-08-22T07:09:55.544Z,99.90
2022-08-22T07:12:29.054Z,99.90
2022-08-22T07:15:01.162Z,99.90
2022-08-22T07:17:32.843Z,99.90
2022-08-22T07:20:15.664Z,99.90
2022-08-22T07:22:56.203Z,99.90
2022-08-22T07:25:24.631Z,99.90
2022-08-22T07:28:07.119Z,99.90
2022-08-22T07:30:40.931Z,98.80
2022-08-22T07:33:30.550Z,99.20
2022-08-22T07:36:07.943Z,99.50
2022-08-22T07:38:43.872Z,98.80
2022-08-22T07:41:22.599Z,97.20
2022-08-22T07:43:57.697Z,96.40
2022-08-22T07:46:33.118Z,96.00
2022-08-22T07:49:25.788Z,93.90
2022-08-22T07:51:56.820Z,93.00
2022-08-22T07:54:51.651Z,91.30
2022-08-22T07:57:41.030Z,91.70
2022-08-22T08:00:19.054Z,91.20
2022-08-22T08:02:50.062Z,89.70
2022-08-22T08:05:18.085Z,85.70
2022-08-22T08:07:47.458Z,87.30
2022-08-22T08:10:20.191Z,87.30
2022-08-22T08:12:58.022Z,89.30
2022-08-22T08:15:34.454Z,88.00
2022-08-22T08:18:06.394Z,85.90
2022-08-22T08:20:36.451Z,84.60
2022-08-22T08:23:10.134Z,79.70
2022-08-22T08:25:53.786Z,79.70
2022-08-22T08:28:38.149Z,77.80
2022-08-22T08:31:07.715Z,79.30
2022-08-22T08:33:40.306Z,80.70
2022-08-22T08:36:33.869Z,78.40
2022-08-22T08:39:14.203Z,77.60
2022-08-22T08:41:50.048Z,75.60
2022-08-22T08:44:44.187Z,73.40
2022-08-22T08:47:32.610Z,75.40
2022-08-22T08:50:18.447Z,76.90
2022-08-22T08:52:59.838Z,79.00
2022-08-22T08:56:06.253Z,83.10
2022-08-22T08:59:01.194Z,80.60
2022-08-22T09:01:43.166Z,81.50
2022-08-22T09:04:43.366Z,77.50
2022-08-22T09:07:28.625Z,75.10
2022-08-22T09:10:11.405Z,74.50
2022-08-22T09:13:11.874Z,74.60
2022-08-22T09:15:58.601Z,72.60
2022-08-22T09:18:51.203Z,73.60
2022-08-22T09:21:30.609Z,73.80
2022-08-22T09:24:25.989Z,71.90
2022-08-22T09:27:03.170Z,69.60
2022-08-22T09:29:59.598Z,73.90
2022-08-22T09:32:47.658Z,70.30
2022-08-22T09:35:51.172Z,68.80
2022-08-22T09:38:27.044Z,67.80
2022-08-22T09:41:09.936Z,68.10
2022-08-22T09:43:49.296Z,68.70
2022-08-22T09:46:29.431Z,67.10
2022-08-22T09:49:38.019Z,64.60
2022-08-22T09:52:39.387Z,65.00
2022-08-22T09:55:27.899Z,65.50
2022-08-22T09:58:25.949Z,67.40
2022-08-22T10:01:10.786Z,64.80
2022-08-22T10:03:58.739Z,65.30
2022-08-22T10:06:32.974Z,64.30
2022-08-22T10:09:14.386Z,66.00
2022-08-22T10:11:49.722Z,67.30
2022-08-22T10:14:51.203Z,67.60
2022-08-22T10:17:36.649Z,70.90
2022-08-22T10:20:09.218Z,69.90
2022-08-22T10:23:00.774Z,68.20
2022-08-22T10:25:42.549Z,68.30
2022-08-22T10:28:16.537Z,67.90
2022-08-22T10:31:40.688Z,67.10
2022-08-22T10:34:30.945Z,67.30
2022-08-22T10:37:30.710Z,65.60
2022-08-22T10:40:14.804Z,63.90
2022-08-22T10:42:53.673Z,61.30
2022-08-22T10:45:37.128Z,62.20
2022-08-22T10:48:10.528Z,57.90
2022-08-22T10:51:02.028Z,59.00
2022-08-22T10:53:43.069Z,58.30
2022-08-22T10:56:16.224Z,59.20
2022-08-22T10:59:00.510Z,60.30
2022-08-22T11:01:38.613Z,61.10
2022-08-22T11:04:40.558Z,65.70
2022-08-22T11:07:18.170Z,62.30
2022-08-22T11:09:57.856Z,60.20
2022-08-22T11:12:45.649Z,59.50
2022-08-22T11:15:33.263Z,61.00
2022-08-22T11:18:25.335Z,59.60
2022-08-22T11:21:07.317Z,59.40
2022-08-22T11:23:58.295Z,59.70
2022-08-22T11:26:47.308Z,59.60
2022-08-22T11:29:34.344Z,59.00
2022-08-22T11:32:30.916Z,58.90
2022-08-22T11:35:09.081Z,58.60
2022-08-22T11:38:10.902Z,59.20
2022-08-22T11:40:56.867Z,57.90
2022-08-22T11:43:32.506Z,57.20
2022-08-22T11:46:14.462Z,57.30
2022-08-22T11:49:03.319Z,55.90
2022-08-22T11:51:49.551Z,55.50
2022-08-22T11:54:36.914Z,54.50
2022-08-22T11:57:26.795Z,55.50
2022-08-22T12:00:13.053Z,55.50
2022-08-22T12:03:05.086Z,57.00
2022-08-22T12:05:55.247Z,57.20
2022-08-22T12:08:31.103Z,55.90
2022-08-22T12:11:06.009Z,57.00
2022-08-22T12:14:06.810Z,55.80
2022-08-22T12:16:58.294Z,56.30
2022-08-22T12:19:33.477Z,55.20
2022-08-22T12:22:40.566Z,55.40
2022-08-22T12:25:35.194Z,56.00
2022-08-22T12:28:20.459Z,58.20
2022-08-22T12:30:59.232Z,58.60
2022-08-22T12:34:04.627Z,58.70
2022-08-22T12:36:48.743Z,61.70
2022-08-22T12:39:24.558Z,56.70
2022-08-22T12:42:16.456Z,55.30
2022-08-22T12:44:46.213Z,54.30
2022-08-22T12:47:29.659Z,53.90
2022-08-22T12:50:22.903Z,50.90
2022-08-22T12:53:14.942Z,52.80
2022-08-22T12:56:06.734Z,53.80
2022-08-22T12:59:12.559Z,55.80
2022-08-22T13:01:49.359Z,56.90
2022-08-22T13:04:33.045Z,57.50
2022-08-22T13:07:22.816Z,58.90
2022-08-22T13:09:59.455Z,56.10
2022-08-22T13:12:36.661Z,54.70
2022-08-22T13:15:31.795Z,52.90
2022-08-22T13:18:28.682Z,53.90
2022-08-22T13:20:55.682Z,52.90
2022-08-22T13:23:50.778Z,51.70
2022-08-22T13:26:33.074Z,52.40
2022-08-22T13:29:26.712Z,50.90
2022-08-22T13:32:01.961Z,49.70
2022-08-22T13:34:39.530Z,51.20
2022-08-22T13:37:17.151Z,49.10
2022-08-22T13:39:47.063Z,50.20
2022-08-22T13:42:30.592Z,49.00
2022-08-22T13:45:02.251Z,47.50
2022-08-22T13:47:34.406Z,49.20
2022-08-22T13:50:19.298Z,48.50
2022-08-22T13:52:55.626Z,49.60
2022-08-22T13:55:35.345Z,49.20
2022-08-22T13:58:11.393Z,47.70
2022-08-22T14:01:01.541Z,47.90
2022-08-22T14:03:48.456Z,48.30
2022-08-22T14:06:46.613Z,47.60
2022-08-22T14:09:31.789Z,48.40
2022-08-22T14:12:21.138Z,46.10
2022-08-22T14:14:57.082Z,46.90
2022-08-22T14:17:42.989Z,46.20
2022-08-22T14:20:37.118Z,45.00
2022-08-22T14:23:08.900Z,45.10
2022-08-22T14:25:39.344Z,45.90
2022-08-22T14:28:27.320Z,44.50
2022-08-22T14:31:13.265Z,44.30
2022-08-22T14:33:50.195Z,45.70
2022-08-22T14:36:40.769Z,44.90
2022-08-22T14:39:13.495Z,46.50
2022-08-22T14:41:56.578Z,45.30
2022-08-22T14:45:02.242Z,45.90
2022-08-22T14:47:55.572Z,45.90
2022-08-22T14:50:54.489Z,46.80
2022-08-22T14:53:39.395Z,46.80
2022-08-22T14:56:23.605Z,47.10
2022-08-22T14:58:54.070Z,46.20
2022-08-22T15:01:25.073Z,46.30
2022-08-22T15:04:11.595Z,46.40
2022-08-22T15:06:48.044Z,46.30
2022-08-22T15:09:35.575Z,46.70
2022-08-22T15:12:08.753Z,46.40
2022-08-22T15:14:37.597Z,47.40
2022-08-22T15:17:09.126Z,47.10
2022-08-22T15:19:48.312Z,47.20
2022-08-22T15:22:21.539Z,46.90
2022-08-22T15:25:04.820Z,46.60
2022-08-22T15:27:36.081Z,47.50
2022-08-22T15:30:20.968Z,46.90
2022-08-22T15:32:49.291Z,47.60
2022-08-22T15:35:38.999Z,48.20
2022-08-22T15:38:36.387Z,48.60
2022-08-22T15:41:25.335Z,48.90
2022-08-22T15:44:14.847Z,49.60
2022-08-22T15:47:34.982Z,49.20
2022-08-22T15:50:10.488Z,49.90
2022-08-22T15:53:26.361Z,50.00
2022-08-22T15:56:11.674Z,49.40
2022-08-22T15:58:49.057Z,49.60
2022-08-22T16:01:22.195Z,49.30
2022-08-22T16:04:12.890Z,48.90
2022-08-22T16:06:52.922Z,49.50
2022-08-22T16:09:42.679Z,49.80
2022-08-22T16:12:24.191Z,49.80
2022-08-22T16:14:52.591Z,49.90
2022-08-22T16:17:28.543Z,49.60
2022-08-22T16:20:19.722Z,50.60
2022-08-22T16:22:58.911Z,50.10
2022-08-22T16:25:50.413Z,51.40
2022-08-22T16:28:57.230Z,51.20
2022-08-22T16:31:28.921Z,49.50
2022-08-22T16:34:17.913Z,50.40
2022-08-22T16:37:03.033Z,51.00
2022-08-22T16:39:41.029Z,49.40
2022-08-22T16:42:18.422Z,50.00
2022-08-22T16:45:06.193Z,49.90
2022-08-22T16:47:33.177Z,49.20
2022-08-22T16:50:03.141Z,49.60
2022-08-22T16:52:30.111Z,50.20
2022-08-22T16:55:06.067Z,51.00
2022-08-22T16:58:05.327Z,52.80
2022-08-22T17:00:58.008Z,53.60
2022-08-22T17:03:40.135Z,55.00
2022-08-22T17:06:51.404Z,56.30
2022-08-22T17:09:47.911Z,56.80
2022-08-22T17:12:37.000Z,58.60
2022-08-22T17:15:16.018Z,58.70
2022-08-22T17:17:48.883Z,59.50
2022-08-22T17:20:32.717Z,59.60
2022-08-22T17:23:16.131Z,60.30
2022-08-22T17:25:48.911Z,61.20
2022-08-22T17:28:41.047Z,61.10
2022-08-22T17:31:16.574Z,61.90
2022-08-22T17:33:54.238Z,63.00
2022-08-22T17:36:53.532Z,63.40
2022-08-22T17:39:57.297Z,63.40
2022-08-22T17:43:06.883Z,64.40
2022-08-22T17:45:45.426Z,65.80
2022-08-22T17:48:15.919Z,67.50
2022-08-22T17:50:57.491Z,69.20
2022-08-22T17:54:01.479Z,69.70
2022-08-22T17:56:41.107Z,70.40
2022-08-22T17:59:48.560Z,71.40
2022-08-22T18:02:28.919Z,73.00
2022-08-22T18:05:08.185Z,74.30
2022-08-22T18:07:53.143Z,76.20
2022-08-22T18:10:45.735Z,75.50
2022-08-22T18:13:35.698Z,76.60
2022-08-22T18:16:33.369Z,77.90
2022-08-22T18:19:33.535Z,78.40
2022-08-22T18:22:22.195Z,79.70
2022-08-22T18:24:56.380Z,80.50
2022-08-22T18:27:34.913Z,81.80
2022-08-22T18:30:25.931Z,82.30
2022-08-22T18:33:22.322Z,83.40
2022-08-22T18:36:04.399Z,83.50
2022-08-22T18:38:41.004Z,84.20
2022-08-22T18:41:28.888Z,84.60
2022-08-22T18:43:59.263Z,85.10
2022-08-22T18:46:38.298Z,84.90
2022-08-22T18:49:24.420Z,84.00
2022-08-22T18:52:09.402Z,83.80
2022-08-22T18:54:43.897Z,84.70
2022-08-22T18:57:44.796Z,85.40
2022-08-22T19:00:19.173Z,85.60
2022-08-22T19:03:04.387Z,86.40
2022-08-22T19:05:51.828Z,87.20
2022-08-22T19:09:05.381Z,88.10
2022-08-22T19:11:44.238Z,90.00
2022-08-22T19:14:55.215Z,90.60
2022-08-22T19:17:58.830Z,91.30
2022-08-22T19:20:48.831Z,91.60
2022-08-22T19:23:40.510Z,92.10
2022-08-22T19:26:23.288Z,92.70
2022-08-22T19:28:59.688Z,93.30
2022-08-22T19:31:55.158Z,93.50
2022-08-22T19:34:37.112Z,94.10
2022-08-22T19:37:32.614Z,94.20
2022-08-22T19:40:10.881Z,94.30
2022-08-22T19:42:44.245Z,94.70
2022-08-22T19:45:26.684Z,94.70
2022-08-22T19:48:10.548Z,95.20
2022-08-22T19:50:41.242Z,95.60
2022-08-22T19:53:25.183Z,96.20
2022-08-22T19:55:52.157Z,97.20
2022-08-22T19:58:59.375Z,97.50
2022-08-22T20:02:09.071Z,98.40
2022-08-22T20:05:11.531Z,99.00
2022-08-22T20:08:12.324Z,99.90
2022-08-22T20:10:39.286Z,99.90
2022-08-22T20:13:32.041Z,99.90
2022-08-22T20:16:34.343Z,99.90
2022-08-22T20:19:07.797Z,99.90
2022-08-22T20:21:55.866Z,99.90
2022-08-22T20:24:30.719Z,99.90
2022-08-22T20:27:15.761Z,99.90
2022-08-22T20:30:08.312Z,99.90
2022-08-22T20:32:45.907Z,99.90
2022-08-22T20:35:19.255Z,99.90
2022-08-22T20:38:07.372Z,99.90
2022-08-22T20:41:11.427Z,99.90
2022-08-22T20:44:02.812Z,99.90
2022-08-22T20:46:54.928Z,99.90
2022-08-22T20:49:54.290Z,99.90
2022-08-22T20:52:29.699Z,99.90
2022-08-22T20:55:15.248Z,99.90
2022-08-22T20:57:54.345Z,99.90
2022-08-22T21:00:36.080Z,99.90
2022-08-22T21:03:13.947Z,99.90
2022-08-22T21:05:44.396Z,99.90
2022-08-22T21:08:19.249Z,99.90
2022-08-22T21:11:16.797Z,99.90
2022-08-22T21:13:43.884Z,99.90
2022-08-22T21:16:32.051Z,99.90
2022-08-22T21:19:03.398Z,99.90
2022-08-22T21:21:33.852Z,99.90
2022-08-22T21:24:07.355Z,99.90
2022-08-22T21:26:46.331Z,99.90
2022-08-22T21:29:13.354Z,99.90
2022-08-22T21:32:11.382Z,99.90
2022-08-22T21:34:47.895Z,99.90
2022-08-22T21:37:17.492Z,99.90
2022-08-22T21:39:51.254Z,99.90
2022-08-22T21:42:27.957Z,99.90
2022-08-22T21:45:00.511Z,99.90
2022-08-22T21:47:38.232Z,99.90
2022-08-22T21:50:23.623Z,99.90
2022-08-22T21:52:56.426Z,99.90
2022-08-22T21:55:30.434Z,99.90
2022-08-22T21:58:12.686Z,99.90
2022-08-22T22:01:02.167Z,99.90
2022-08-22T22:03:37.383Z,99.90
2022-08-22T22:06:06.522Z,99.90
2022-08-22T22:08:34.151Z,99.90
2022-08-22T22:11:06.128Z,99.90
2022-08-22T22:13:35.364Z,99.90
2022-08-22T22:16:03.126Z,99.90
2022-08-22T22:18:34.215Z,99.90
2022-08-22T22:21:01.332Z,99.90
2022-08-22T22:23:28.860Z,99.90
2022-08-22T22:26:00.815Z,99.90
2022-08-22T22:28:34.581Z,99.90
2022-08-22T22:31:01.717Z,99.90
2022-08-22T22:33:31.866Z,99.90
2022-08-22T22:36:04.226Z,99.90
2022-08-22T22:38:31.659Z,99.90
2022-08-22T22:40:58.669Z,99.90
2022-08-22T22:43:26.230Z,99.90
2022-08-22T22:45:53.428Z,99.90
2022-08-22T22:48:24.142Z,99.90
2022-08-22T22:50:55.114Z,99.90
2022-08-22T22:53:33.858Z,99.90
2022-08-22T22:56:09.099Z,99.90
2022-08-22T22:58:38.057Z,99.90
2022-08-22T23:01:11.280Z,99.90
2022-08-22T23:03:38.390Z,99.90
2022-08-22T23:06:14.095Z,99.90
2022-08-22T23:08:41.384Z,99.90
2022-08-22T23:11:15.273Z,99.90
2022-08-22T23:13:43.263Z,99.90
2022-08-22T23:16:20.067Z,99.90
2022-08-22T23:18:47.879Z,99.90
2022-08-22T23:21:19.091Z,99.90
2022-08-22T23:23:47.402Z,99.90
2022-08-22T23:26:15.503Z,99.90
2022-08-22T23:28:42.911Z,99.90
2022-08-22T23:31:37.699Z,99.90
2022-08-22T23:34:12.506Z,99.90
2022-08-22T23:36:42.727Z,99.90
2022-08-22T23:39:10.387Z,99.90
2022-08-22T23:41:37.680Z,99.90
2022-08-22T23:44:07.924Z,99.90
2022-08-22T23:46:41.218Z,99.90
2022-08-22T23:49:08.425Z,99.90
2022-08-22T23:51:36.261Z,99.90
2022-08-22T23:54:04.301Z,99.90
2022-08-22T23:56:40.383Z,99.90
2022-08-22T23:59:11.724Z,99.90
